Time;durP1;ratioP1;P1;durP2;ratioP2;P2;SDS_P1;SDS_P2;PMS_P1;PMS_P2;Temp;Humidity;BMP_temperature;BMP_pressure;BME280_temperature;BME280_humidity;BME280_pressure;Samples;Min_cycle;Max_cycle;Signal;HPM_P1;HPM_P2
2021/05/01 00:00:42;;;;;;;15.70;10.87;;;7.60;99.90;;;;;;5055714;28;20601;-50
2021/05/01 00:03:09;;;;;;;12.70;10.57;;;7.60;99.90;;;;;;5054573;28;20238;-48
2021/05/01 00:05:35;;;;;;;11.70;10.50;;;7.60;99.90;;;;;;5043925;28;20249;-49
2021/05/01 00:08:01;;;;;;;11.53;10.30;;;7.60;99.90;;;;;;5063188;28;20210;-57
2021/05/01 00:10:27;;;;;;;12.67;10.60;;;7.60;99.90;;;;;;5061231;28;20187;-48
2021/05/01 00:12:53;;;;;;;11.67;10.47;;;7.60;99.90;;;;;;5054454;28;20787;-51
2021/05/01 00:15:20;;;;;;;11.87;10.67;;;7.60;99.90;;;;;;5040663;28;20262;-49
2021/05/01 00:17:46;;;;;;;12.97;10.97;;;7.60;99.90;;;;;;5044903;28;20198;-54
2021/05/01 00:20:14;;;;;;;13.00;10.47;;;7.60;99.90;;;;;;5016691;28;20206;-51
2021/05/01 00:22:40;;;;;;;12.40;10.57;;;7.60;99.90;;;;;;5055543;28;20708;-51
2021/05/01 00:25:07;;;;;;;11.63;9.90;;;7.60;99.90;;;;;;5063159;28;20290;-55
2021/05/01 00:27:33;;;;;;;11.57;10.40;;;7.60;99.90;;;;;;5055436;28;20226;-52
2021/05/01 00:29:59;;;;;;;11.67;10.47;;;7.70;99.90;;;;;;5054243;28;20257;-54
2021/05/01 00:32:26;;;;;;;12.80;9.90;;;7.70;99.90;;;;;;5044717;28;20203;-49
2021/05/01 00:34:52;;;;;;;11.10;10.00;;;7.70;99.90;;;;;;5038019;28;20210;-49
2021/05/01 00:37:19;;;;;;;10.80;9.80;;;7.70;99.90;;;;;;5054781;28;20197;-53
2021/05/01 00:39:45;;;;;;;13.10;9.63;;;7.70;99.90;;;;;;5049577;28;20236;-54
2021/05/01 00:42:11;;;;;;;10.20;8.63;;;7.70;99.90;;;;;;5046261;28;20211;-53
2021/05/01 00:44:37;;;;;;;10.77;9.43;;;7.70;99.90;;;;;;5048644;28;20198;-50
2021/05/01 00:47:03;;;;;;;9.93;8.93;;;7.70;99.90;;;;;;5057159;28;20214;-52
2021/05/01 00:49:30;;;;;;;10.87;8.63;;;7.70;99.90;;;;;;5062998;28;20191;-47
2021/05/01 00:51:56;;;;;;;9.00;8.20;;;7.70;99.90;;;;;;5045326;28;20229;-48
2021/05/01 00:54:23;;;;;;;9.80;8.03;;;7.70;99.90;;;;;;5058159;28;20199;-50
2021/05/01 00:56:49;;;;;;;9.40;8.37;;;7.70;99.90;;;;;;5067532;28;20197;-49
2021/05/01 00:59:16;;;;;;;9.17;7.87;;;7.70;99.90;;;;;;5058549;28;20195;-49
2021/05/01 01:01:48;;;;;;;9.93;8.17;;;7.80;99.90;;;;;;5044650;28;20735;-49
2021/05/01 01:04:14;;;;;;;8.23;7.33;;;7.80;99.90;;;;;;5043202;28;20684;-54
2021/05/01 01:06:41;;;;;;;8.53;7.50;;;7.90;99.90;;;;;;5046717;28;20229;-55
2021/05/01 01:09:07;;;;;;;8.17;7.37;;;7.80;99.90;;;;;;5055383;28;20200;-50
2021/05/01 01:11:35;;;;;;;8.83;7.40;;;7.90;99.90;;;;;;5047853;28;20215;-53
2021/05/01 01:14:02;;;;;;;8.73;6.93;;;7.90;99.90;;;;;;5045069;28;20725;-49
2021/05/01 01:16:29;;;;;;;7.87;7.10;;;7.90;99.90;;;;;;5049789;28;20256;-47
2021/05/01 01:18:55;;;;;;;9.10;8.03;;;7.90;99.90;;;;;;5027873;28;20811;-50
2021/05/01 01:21:22;;;;;;;7.77;6.93;;;7.90;99.90;;;;;;5035937;28;20206;-49
2021/05/01 01:23:49;;;;;;;6.93;6.13;;;7.90;99.90;;;;;;5057150;28;20191;-51
2021/05/01 01:26:15;;;;;;;7.83;7.13;;;7.90;99.90;;;;;;5062018;28;20826;-49
2021/05/01 01:28:42;;;;;;;9.37;7.07;;;7.90;99.90;;;;;;5064696;28;20668;-50
2021/05/01 01:31:08;;;;;;;7.73;6.87;;;7.90;99.90;;;;;;5051218;28;20657;-49
2021/05/01 01:33:36;;;;;;;7.87;7.17;;;7.90;99.90;;;;;;5044896;28;20294;-49
2021/05/01 01:36:03;;;;;;;8.27;7.40;;;8.00;99.90;;;;;;5046424;28;20199;-51
2021/05/01 01:38:29;;;;;;;8.17;7.00;;;8.00;99.90;;;;;;5048002;28;20228;-51
2021/05/01 01:40:56;;;;;;;8.33;6.87;;;8.00;99.90;;;;;;5049312;28;20199;-50
2021/05/01 01:43:25;;;;;;;8.10;7.30;;;8.00;99.90;;;;;;5044100;28;20231;-48
2021/05/01 01:45:51;;;;;;;7.50;6.80;;;8.00;99.90;;;;;;5048805;28;20700;-51
2021/05/01 01:48:17;;;;;;;7.43;6.60;;;8.00;99.90;;;;;;5048908;28;20727;-54
2021/05/01 01:50:43;;;;;;;7.97;7.17;;;8.00;99.90;;;;;;5045768;28;20192;-48
2021/05/01 01:53:09;;;;;;;7.77;7.00;;;8.00;99.90;;;;;;5037488;28;20223;-53
2021/05/01 01:55:35;;;;;;;8.17;6.43;;;8.00;99.90;;;;;;5053971;28;20203;-48
2021/05/01 01:58:03;;;;;;;8.53;7.37;;;8.00;99.90;;;;;;5047041;28;20200;-52
2021/05/01 02:00:31;;;;;;;7.20;6.50;;;8.00;99.90;;;;;;5044260;28;20222;-48
2021/05/01 02:02:58;;;;;;;7.17;6.47;;;8.00;99.90;;;;;;5043391;28;20223;-53
2021/05/01 02:05:24;;;;;;;8.23;7.33;;;8.00;99.90;;;;;;5048660;28;20778;-48
2021/05/01 02:07:55;;;;;;;8.00;7.20;;;8.00;99.90;;;;;;5040213;28;20736;-50
2021/05/01 02:10:21;;;;;;;7.37;6.67;;;8.00;99.90;;;;;;5050375;28;20218;-50
2021/05/01 02:12:48;;;;;;;7.53;6.77;;;8.00;99.90;;;;;;5046839;28;20287;-48
2021/05/01 02:15:16;;;;;;;8.07;7.00;;;8.00;99.90;;;;;;5043604;28;20183;-56
2021/05/01 02:17:46;;;;;;;7.47;6.30;;;8.00;99.90;;;;;;5043519;28;20615;-48
2021/05/01 02:20:16;;;;;;;7.27;6.67;;;8.00;99.90;;;;;;5054947;28;20195;-51
2021/05/01 02:22:42;;;;;;;7.60;6.90;;;8.00;99.90;;;;;;5065702;28;20280;-49
2021/05/01 02:25:09;;;;;;;8.60;6.73;;;8.00;99.90;;;;;;5042544;28;20209;-49
2021/05/01 02:27:35;;;;;;;8.37;6.30;;;8.00;99.90;;;;;;5061056;28;20297;-48
2021/05/01 02:30:03;;;;;;;6.93;6.30;;;8.00;99.90;;;;;;5065689;28;20679;-53
2021/05/01 02:32:30;;;;;;;8.30;7.10;;;8.00;99.90;;;;;;5056399;28;20241;-49
2021/05/01 02:34:56;;;;;;;8.43;7.00;;;8.00;99.90;;;;;;5046587;28;20282;-49
2021/05/01 02:37:22;;;;;;;8.80;7.50;;;8.00;99.90;;;;;;5041951;28;20234;-48
2021/05/01 02:39:48;;;;;;;8.07;7.27;;;8.00;99.90;;;;;;5037976;28;20269;-49
2021/05/01 02:42:14;;;;;;;8.53;7.67;;;8.00;99.90;;;;;;5048957;28;20219;-53
2021/05/01 02:44:40;;;;;;;9.10;6.87;;;8.00;99.90;;;;;;5027329;28;20253;-51
2021/05/01 02:47:07;;;;;;;7.60;6.87;;;7.90;99.90;;;;;;5044212;28;20207;-53
2021/05/01 02:49:34;;;;;;;7.70;6.90;;;8.00;99.90;;;;;;5052579;28;20358;-49
2021/05/01 02:52:00;;;;;;;8.13;7.13;;;8.00;99.90;;;;;;5025110;28;20219;-53
2021/05/01 02:54:26;;;;;;;8.17;7.20;;;8.00;99.90;;;;;;5029464;28;20210;-48
2021/05/01 02:56:52;;;;;;;9.27;6.83;;;7.90;99.90;;;;;;5057141;28;20868;-48
2021/05/01 02:59:18;;;;;;;10.03;6.90;;;7.90;99.90;;;;;;5061242;28;20245;-54
2021/05/01 03:01:44;;;;;;;9.03;7.10;;;7.90;99.90;;;;;;5065808;28;20207;-48
2021/05/01 03:04:10;;;;;;;8.10;7.30;;;7.90;99.90;;;;;;5051184;28;20673;-52
2021/05/01 03:06:37;;;;;;;9.40;7.00;;;7.90;99.90;;;;;;5044360;28;20252;-51
2021/05/01 03:09:04;;;;;;;8.17;7.37;;;7.90;99.90;;;;;;5041404;28;20207;-53
2021/05/01 03:11:30;;;;;;;8.63;7.73;;;7.90;99.90;;;;;;5044380;28;20270;-47
2021/05/01 03:13:56;;;;;;;8.60;7.70;;;7.90;99.90;;;;;;5045499;28;20192;-48
2021/05/01 03:16:23;;;;;;;9.37;7.97;;;7.90;99.90;;;;;;5041539;28;20187;-52
2021/05/01 03:18:49;;;;;;;10.03;8.43;;;7.80;99.90;;;;;;5053640;28;20206;-53
2021/05/01 03:21:15;;;;;;;11.30;7.70;;;7.80;99.90;;;;;;5052688;28;20248;-54
2021/05/01 03:23:42;;;;;;;9.53;7.87;;;7.80;99.90;;;;;;5064878;28;20704;-49
2021/05/01 03:26:08;;;;;;;9.53;7.80;;;7.80;99.90;;;;;;5043477;28;20223;-51
2021/05/01 03:28:34;;;;;;;9.30;8.30;;;7.80;99.90;;;;;;5050418;28;20588;-50
2021/05/01 03:31:01;;;;;;;9.47;7.40;;;7.80;99.90;;;;;;5044784;28;20195;-52
2021/05/01 03:33:28;;;;;;;9.03;7.47;;;7.80;99.90;;;;;;5042024;28;20199;-52
2021/05/01 03:35:56;;;;;;;9.80;8.70;;;7.80;99.90;;;;;;5023637;28;20562;-49
2021/05/01 03:38:22;;;;;;;8.90;8.00;;;7.80;99.90;;;;;;5041236;28;20980;-48
2021/05/01 03:40:50;;;;;;;8.27;7.20;;;7.80;99.90;;;;;;5044898;28;20198;-47
2021/05/01 03:43:19;;;;;;;9.60;7.80;;;7.80;99.90;;;;;;5037550;28;20223;-53
2021/05/01 03:45:45;;;;;;;9.53;8.57;;;7.80;99.90;;;;;;5046948;28;20199;-48
2021/05/01 03:48:11;;;;;;;9.53;7.70;;;7.80;99.90;;;;;;5047921;28;20199;-55
2021/05/01 03:50:37;;;;;;;9.20;8.03;;;7.80;99.90;;;;;;5055074;28;20895;-49
2021/05/01 03:53:03;;;;;;;9.97;7.47;;;7.70;99.90;;;;;;5043821;28;20708;-53
2021/05/01 03:55:29;;;;;;;10.03;7.67;;;7.70;99.90;;;;;;5042342;28;20201;-49
2021/05/01 03:57:56;;;;;;;9.73;8.30;;;7.70;99.90;;;;;;5037992;28;20203;-48
2021/05/01 04:00:23;;;;;;;10.53;8.00;;;7.70;99.90;;;;;;5045689;28;20198;-49
2021/05/01 04:02:50;;;;;;;9.87;8.27;;;7.70;99.90;;;;;;5045423;28;20211;-51
2021/05/01 04:05:17;;;;;;;8.93;7.37;;;7.70;99.90;;;;;;5043712;28;20278;-50
2021/05/01 04:07:43;;;;;;;8.87;7.87;;;7.70;99.90;;;;;;5044815;28;20237;-49
2021/05/01 04:10:11;;;;;;;10.00;7.97;;;7.70;99.90;;;;;;5046577;28;20238;-52
2021/05/01 04:12:37;;;;;;;11.47;8.20;;;7.70;99.90;;;;;;5037551;28;20238;-48
2021/05/01 04:15:05;;;;;;;11.10;8.00;;;7.70;99.90;;;;;;5055813;28;20661;-53
2021/05/01 04:17:31;;;;;;;11.73;8.13;;;7.70;99.90;;;;;;5027464;28;20930;-49
2021/05/01 04:19:57;;;;;;;9.57;7.93;;;7.70;99.90;;;;;;5060474;28;20658;-50
2021/05/01 04:22:24;;;;;;;10.33;7.83;;;7.70;99.90;;;;;;5053702;28;20367;-49
2021/05/01 04:24:50;;;;;;;9.73;7.93;;;7.70;99.90;;;;;;5041695;28;20542;-52
2021/05/01 04:27:17;;;;;;;9.40;8.07;;;7.70;99.90;;;;;;5039186;28;20628;-52
2021/05/01 04:29:43;;;;;;;8.87;7.80;;;7.70;99.90;;;;;;5039411;28;20203;-49
2021/05/01 04:32:10;;;;;;;11.33;8.77;;;7.70;99.90;;;;;;5044535;28;20208;-52
2021/05/01 04:34:36;;;;;;;9.50;7.40;;;7.70;99.90;;;;;;5048743;28;20222;-47
2021/05/01 04:37:02;;;;;;;11.70;7.63;;;7.60;99.90;;;;;;5043514;28;20671;-49
2021/05/01 04:39:29;;;;;;;10.43;7.87;;;7.70;99.90;;;;;;5047069;28;20218;-52
2021/05/01 04:41:55;;;;;;;10.10;7.63;;;7.70;99.90;;;;;;5047034;28;20872;-54
2021/05/01 04:44:22;;;;;;;9.93;8.37;;;7.70;99.90;;;;;;5037986;28;20200;-55
2021/05/01 04:46:49;;;;;;;8.13;7.33;;;7.60;99.90;;;;;;5056647;28;20207;-52
2021/05/01 04:49:16;;;;;;;8.70;6.90;;;7.60;99.90;;;;;;5053449;28;20187;-49
2021/05/01 04:51:43;;;;;;;10.53;7.87;;;7.60;99.90;;;;;;5066351;28;20217;-48
2021/05/01 04:54:09;;;;;;;9.30;7.33;;;7.60;99.90;;;;;;5050671;28;20913;-48
2021/05/01 04:56:36;;;;;;;10.13;7.50;;;7.70;99.90;;;;;;5048675;28;20582;-48
2021/05/01 04:59:02;;;;;;;10.77;7.60;;;7.60;99.90;;;;;;5035966;28;20219;-56
2021/05/01 05:01:28;;;;;;;9.30;7.07;;;7.60;99.90;;;;;;5046991;28;20227;-50
2021/05/01 05:03:55;;;;;;;7.37;6.60;;;7.60;99.90;;;;;;5045903;28;20234;-52
2021/05/01 05:06:22;;;;;;;8.67;7.30;;;7.60;99.90;;;;;;5043233;28;20195;-48
2021/05/01 05:08:48;;;;;;;8.13;7.13;;;7.60;99.90;;;;;;5046921;28;20215;-55
2021/05/01 05:11:14;;;;;;;7.47;6.67;;;7.60;99.90;;;;;;5041865;28;20209;-51
2021/05/01 05:13:40;;;;;;;9.23;7.27;;;7.60;99.90;;;;;;5055396;28;20206;-51
2021/05/01 05:16:06;;;;;;;9.60;7.03;;;7.60;99.90;;;;;;5038078;28;20194;-51
2021/05/01 05:18:32;;;;;;;8.00;6.53;;;7.60;99.90;;;;;;5060036;28;20226;-52
2021/05/01 05:20:59;;;;;;;7.33;6.30;;;7.60;99.90;;;;;;5049685;28;20203;-54
2021/05/01 05:23:26;;;;;;;8.20;7.40;;;7.60;99.90;;;;;;5043245;28;20227;-51
2021/05/01 05:25:52;;;;;;;7.83;7.03;;;7.60;99.90;;;;;;5024960;28;20217;-52
2021/05/01 05:28:19;;;;;;;8.73;6.73;;;7.60;99.90;;;;;;5027982;28;20211;-54
2021/05/01 05:30:45;;;;;;;8.90;6.77;;;7.70;99.90;;;;;;5046032;28;20226;-50
2021/05/01 05:33:11;;;;;;;9.23;7.07;;;7.70;99.90;;;;;;5042605;28;20916;-49
2021/05/01 05:35:37;;;;;;;8.33;6.70;;;7.70;99.90;;;;;;5062330;28;20552;-48
2021/05/01 05:38:04;;;;;;;8.77;6.90;;;7.70;99.90;;;;;;5030187;28;20305;-49
2021/05/01 05:40:32;;;;;;;8.53;6.27;;;7.80;99.90;;;;;;5042432;28;20214;-49
2021/05/01 05:42:58;;;;;;;6.77;6.03;;;7.80;99.90;;;;;;5047082;28;20253;-54
2021/05/01 05:45:26;;;;;;;7.57;6.77;;;7.80;99.90;;;;;;5047076;28;20720;-50
2021/05/01 05:47:53;;;;;;;6.87;6.20;;;7.80;99.90;;;;;;5017653;28;20223;-51
2021/05/01 05:50:19;;;;;;;8.00;7.20;;;7.80;99.90;;;;;;5055664;28;20243;-52
2021/05/01 05:52:46;;;;;;;6.70;5.93;;;7.80;99.90;;;;;;5049180;28;20218;-53
2021/05/01 05:55:13;;;;;;;9.13;6.40;;;7.90;99.90;;;;;;5042778;28;20179;-49
2021/05/01 05:57:41;;;;;;;7.00;6.30;;;7.90;99.90;;;;;;5043145;28;20673;-48
2021/05/01 06:00:08;;;;;;;8.00;6.17;;;8.00;99.90;;;;;;5042134;28;20245;-50
2021/05/01 06:02:42;;;;;;;9.60;5.60;;;8.00;99.90;;;;;;5028955;28;20223;-50
2021/05/01 06:05:13;;;;;;;7.97;6.80;;;8.10;99.90;;;;;;5036731;28;20319;-51
2021/05/01 06:07:43;;;;;;;8.00;6.27;;;8.10;99.90;;;;;;5041340;28;20636;-48
2021/05/01 06:10:11;;;;;;;6.93;5.60;;;8.10;99.90;;;;;;5042273;28;20789;-50
2021/05/01 06:12:42;;;;;;;6.77;5.87;;;8.20;99.90;;;;;;5043320;28;20714;-50
2021/05/01 06:15:10;;;;;;;8.47;5.53;;;8.20;99.90;;;;;;5039262;28;20298;-48
2021/05/01 06:17:37;;;;;;;6.90;5.97;;;8.20;99.90;;;;;;5015336;28;20192;-49
2021/05/01 06:20:07;;;;;;;5.77;5.23;;;8.30;99.90;;;;;;5021499;28;20206;-48
2021/05/01 06:22:33;;;;;;;6.77;5.53;;;8.20;99.90;;;;;;5029190;28;20226;-49
2021/05/01 06:25:01;;;;;;;6.80;5.30;;;8.20;99.90;;;;;;5057786;28;20595;-47
2021/05/01 06:27:28;;;;;;;6.53;5.83;;;8.20;99.90;;;;;;5042982;28;20227;-54
2021/05/01 06:29:55;;;;;;;6.40;5.77;;;8.20;99.90;;;;;;5047575;28;20684;-49
2021/05/01 06:32:22;;;;;;;6.27;5.70;;;8.20;99.90;;;;;;5057537;28;20214;-50
2021/05/01 06:34:51;;;;;;;5.70;4.97;;;8.20;99.90;;;;;;5048952;28;20224;-50
2021/05/01 06:37:19;;;;;;;6.40;5.80;;;8.30;99.90;;;;;;5052964;28;20262;-50
2021/05/01 06:39:47;;;;;;;8.23;5.67;;;8.30;99.90;;;;;;5036766;28;20412;-49
2021/05/01 06:42:18;;;;;;;6.67;5.90;;;8.30;99.90;;;;;;5040820;28;20260;-53
2021/05/01 06:44:50;;;;;;;7.30;5.90;;;8.30;99.90;;;;;;5050998;28;20191;-50
2021/05/01 06:47:23;;;;;;;6.73;6.03;;;8.40;99.90;;;;;;5057919;28;20816;-55
2021/05/01 06:50:04;;;;;;;6.70;6.10;;;8.50;99.90;;;;;;5058305;28;20196;-49
2021/05/01 06:52:31;;;;;;;8.13;6.43;;;8.50;99.90;;;;;;5044478;28;20230;-47
2021/05/01 06:55:01;;;;;;;6.73;6.00;;;8.40;99.90;;;;;;5046626;28;20671;-50
2021/05/01 06:57:28;;;;;;;8.90;6.17;;;8.40;99.90;;;;;;5036574;28;20207;-52
2021/05/01 06:59:56;;;;;;;6.60;5.90;;;8.50;99.90;;;;;;5025620;28;20203;-46
2021/05/01 07:02:26;;;;;;;6.63;5.93;;;8.50;99.90;;;;;;5022531;28;20247;-52
2021/05/01 07:04:54;;;;;;;6.27;5.67;;;8.50;99.90;;;;;;5027134;28;20192;-48
2021/05/01 07:07:22;;;;;;;8.00;6.50;;;8.50;99.90;;;;;;5005470;28;20678;-53
2021/05/01 07:09:49;;;;;;;6.53;5.93;;;8.50;99.90;;;;;;5014625;28;20216;-48
2021/05/01 07:12:18;;;;;;;6.10;5.50;;;8.60;99.90;;;;;;5035733;28;20223;-52
2021/05/01 07:14:44;;;;;;;6.23;5.40;;;8.50;99.90;;;;;;5048013;28;20785;-50
2021/05/01 07:17:12;;;;;;;7.73;5.57;;;8.60;99.90;;;;;;5044780;28;20195;-54
2021/05/01 07:19:40;;;;;;;5.90;5.30;;;8.60;99.90;;;;;;5057183;28;20190;-50
2021/05/01 07:22:06;;;;;;;6.10;5.53;;;8.60;99.90;;;;;;5042317;28;20255;-52
2021/05/01 07:24:32;;;;;;;6.60;5.90;;;8.70;99.90;;;;;;5033048;28;20202;-50
2021/05/01 07:26:59;;;;;;;8.90;6.10;;;8.70;99.90;;;;;;5040442;28;20199;-51
2021/05/01 07:29:32;;;;;;;7.00;6.33;;;8.80;99.90;;;;;;5046222;28;20203;-49
2021/05/01 07:31:58;;;;;;;8.07;6.00;;;8.80;99.90;;;;;;5042889;28;20710;-50
2021/05/01 07:34:26;;;;;;;6.73;5.93;;;8.90;99.90;;;;;;5039403;28;20191;-53
2021/05/01 07:36:56;;;;;;;6.00;5.40;;;8.90;99.90;;;;;;5053221;28;20195;-49
2021/05/01 07:39:24;;;;;;;7.97;5.20;;;9.00;99.90;;;;;;5038097;28;20737;-55
2021/05/01 07:41:56;;;;;;;6.50;5.77;;;9.00;99.90;;;;;;5046354;28;20295;-53
2021/05/01 07:44:24;;;;;;;7.43;5.20;;;9.10;99.90;;;;;;5039000;28;20355;-55
2021/05/01 07:46:51;;;;;;;5.97;5.33;;;9.10;99.90;;;;;;5045494;28;20207;-51
2021/05/01 07:49:17;;;;;;;5.80;4.80;;;9.20;99.90;;;;;;5024801;28;20738;-54
2021/05/01 07:51:44;;;;;;;6.60;5.50;;;9.30;99.90;;;;;;5037203;28;20272;-50
2021/05/01 07:54:12;;;;;;;5.77;5.17;;;9.30;99.90;;;;;;5036637;28;20206;-54
2021/05/01 07:56:38;;;;;;;6.63;6.00;;;9.40;99.90;;;;;;5048387;28;20194;-52
2021/05/01 07:59:05;;;;;;;5.60;5.00;;;9.50;99.90;;;;;;5033755;28;20215;-52
2021/05/01 08:01:31;;;;;;;8.13;5.30;;;9.60;99.90;;;;;;5038898;28;20301;-55
2021/05/01 08:03:58;;;;;;;7.57;5.53;;;9.60;99.90;;;;;;5043643;28;20202;-54
2021/05/01 08:06:26;;;;;;;5.53;5.00;;;9.60;99.90;;;;;;5044848;28;20207;-52
2021/05/01 08:08:53;;;;;;;5.90;5.30;;;9.60;99.90;;;;;;5044010;28;20583;-50
2021/05/01 08:11:20;;;;;;;5.60;4.93;;;9.70;99.90;;;;;;5029304;28;20199;-49
2021/05/01 08:13:46;;;;;;;5.60;4.93;;;9.80;99.90;;;;;;5054075;28;20202;-50
2021/05/01 08:16:14;;;;;;;6.80;5.00;;;9.90;99.90;;;;;;5037395;28;20657;-51
2021/05/01 08:18:40;;;;;;;5.37;4.87;;;10.00;99.90;;;;;;5033693;28;20187;-52
2021/05/01 08:21:06;;;;;;;6.83;4.97;;;10.10;99.90;;;;;;5042038;28;20196;-51
2021/05/01 08:23:33;;;;;;;7.40;5.33;;;10.10;99.90;;;;;;5048472;28;20190;-49
2021/05/01 08:26:00;;;;;;;5.93;5.07;;;10.20;99.90;;;;;;5038313;28;20234;-51
2021/05/01 08:28:27;;;;;;;5.50;4.80;;;10.30;99.90;;;;;;5036491;28;20928;-48
2021/05/01 08:30:54;;;;;;;5.80;5.23;;;10.40;99.90;;;;;;5043995;28;20215;-51
2021/05/01 08:33:20;;;;;;;6.10;5.10;;;10.40;99.90;;;;;;5042162;28;20292;-49
2021/05/01 08:35:47;;;;;;;8.87;5.00;;;10.40;99.90;;;;;;5044700;28;20191;-53
2021/05/01 08:38:13;;;;;;;5.93;5.17;;;10.40;99.90;;;;;;5045041;28;20199;-54
2021/05/01 08:40:40;;;;;;;7.53;5.30;;;10.40;99.90;;;;;;5023141;28;20203;-51
2021/05/01 08:43:07;;;;;;;6.40;5.47;;;10.50;99.90;;;;;;5046023;28;20227;-49
2021/05/01 08:45:34;;;;;;;7.80;5.67;;;10.50;99.90;;;;;;5041318;28;20215;-54
2021/05/01 08:48:01;;;;;;;6.30;5.33;;;10.60;99.90;;;;;;5039082;28;20227;-52
2021/05/01 08:50:35;;;;;;;5.97;4.93;;;10.70;99.90;;;;;;5044831;28;20199;-51
2021/05/01 08:53:02;;;;;;;5.13;4.43;;;10.70;99.90;;;;;;5047649;28;20215;-53
2021/05/01 08:55:34;;;;;;;6.30;5.67;;;10.80;99.90;;;;;;5034094;28;20692;-52
2021/05/01 08:58:00;;;;;;;6.07;5.47;;;10.90;99.90;;;;;;5048296;28;20187;-51
2021/05/01 09:00:26;;;;;;;7.07;5.30;;;10.80;99.90;;;;;;5047365;28;20255;-53
2021/05/01 09:02:54;;;;;;;5.37;4.87;;;10.90;99.90;;;;;;5021284;28;20280;-56
2021/05/01 09:05:23;;;;;;;5.90;5.23;;;11.10;99.90;;;;;;5045266;28;20210;-55
2021/05/01 09:07:51;;;;;;;5.80;5.20;;;11.10;99.90;;;;;;5034863;28;21072;-52
2021/05/01 09:10:17;;;;;;;7.77;5.00;;;11.10;99.90;;;;;;5048316;28;20207;-51
2021/05/01 09:12:45;;;;;;;5.73;5.17;;;11.00;99.90;;;;;;5029967;28;20215;-51
2021/05/01 09:15:18;;;;;;;5.60;5.13;;;11.00;99.90;;;;;;5030872;28;20204;-48
2021/05/01 09:17:46;;;;;;;5.97;4.93;;;11.10;99.90;;;;;;5040059;28;20249;-48
2021/05/01 09:20:15;;;;;;;6.60;5.50;;;11.20;99.90;;;;;;5043089;28;20256;-51
2021/05/01 09:22:55;;;;;;;5.77;5.20;;;11.20;99.90;;;;;;5031566;28;20220;-49
2021/05/01 09:25:23;;;;;;;7.10;5.23;;;11.30;99.90;;;;;;5055787;28;20201;-53
2021/05/01 09:28:10;;;;;;;5.97;5.30;;;11.20;99.90;;;;;;5025148;28;20692;-55
2021/05/01 09:30:38;;;;;;;5.23;4.83;;;11.30;99.90;;;;;;5038336;28;20195;-50
2021/05/01 09:33:28;;;;;;;6.77;5.40;;;11.50;99.90;;;;;;5022930;28;20215;-49
2021/05/01 09:36:04;;;;;;;5.07;4.53;;;11.60;99.90;;;;;;5048684;28;20316;-56
2021/05/01 09:38:33;;;;;;;6.80;5.40;;;11.70;99.90;;;;;;5053975;28;20393;-49
2021/05/01 09:41:07;;;;;;;9.13;5.73;;;11.60;99.90;;;;;;5026654;28;20286;-57
2021/05/01 09:43:33;;;;;;;8.43;5.40;;;11.60;99.90;;;;;;5050853;28;20267;-52
2021/05/01 09:45:59;;;;;;;5.20;4.70;;;11.80;99.90;;;;;;5029624;28;20214;-55
2021/05/01 09:48:25;;;;;;;7.47;5.20;;;11.90;99.90;;;;;;5029444;28;20577;-51
2021/05/01 09:51:04;;;;;;;7.00;5.20;;;12.00;99.90;;;;;;5041350;28;20358;-56
2021/05/01 09:53:31;;;;;;;5.90;5.30;;;12.10;99.90;;;;;;5037450;28;20220;-53
2021/05/01 09:55:59;;;;;;;7.93;4.77;;;12.00;99.90;;;;;;5021861;28;20239;-56
2021/05/01 09:58:26;;;;;;;5.60;5.03;;;12.00;99.90;;;;;;5034733;28;20675;-52
2021/05/01 10:00:54;;;;;;;4.83;4.43;;;12.10;99.90;;;;;;5039282;28;20393;-55
2021/05/01 10:03:26;;;;;;;5.70;5.10;;;12.10;99.90;;;;;;5041235;28;20223;-55
2021/05/01 10:05:55;;;;;;;8.57;5.13;;;12.10;99.90;;;;;;5038222;28;20214;-55
2021/05/01 10:08:29;;;;;;;5.77;4.93;;;12.20;99.90;;;;;;5049424;28;20696;-54
2021/05/01 10:10:56;;;;;;;6.83;4.90;;;12.30;99.90;;;;;;5042147;28;20191;-55
2021/05/01 10:13:23;;;;;;;5.87;5.37;;;12.50;99.90;;;;;;5026577;28;20227;-53
2021/05/01 10:15:51;;;;;;;5.90;5.37;;;12.60;99.90;;;;;;5040114;28;20187;-55
2021/05/01 10:18:20;;;;;;;5.47;4.90;;;12.60;99.90;;;;;;5041179;28;21023;-55
2021/05/01 10:20:49;;;;;;;4.83;4.50;;;12.60;99.90;;;;;;5047417;28;20202;-56
2021/05/01 10:23:18;;;;;;;5.57;5.07;;;12.80;99.90;;;;;;5055024;28;20222;-55
2021/05/01 10:25:46;;;;;;;4.93;4.43;;;12.80;99.90;;;;;;5051227;28;20211;-56
2021/05/01 10:28:15;;;;;;;5.83;4.70;;;12.80;99.90;;;;;;5054876;28;20793;-53
2021/05/01 10:30:45;;;;;;;5.07;4.63;;;13.00;99.90;;;;;;5041403;28;20210;-53
2021/05/01 10:33:32;;;;;;;6.83;4.83;;;13.00;99.90;;;;;;5045693;28;20223;-56
2021/05/01 10:36:02;;;;;;;5.73;4.83;;;13.00;99.90;;;;;;5035514;28;20241;-57
2021/05/01 10:38:29;;;;;;;6.20;4.83;;;13.00;99.90;;;;;;5026276;28;20181;-57
2021/05/01 10:40:57;;;;;;;5.83;5.20;;;13.20;99.90;;;;;;5022689;28;20187;-56
2021/05/01 10:43:25;;;;;;;5.73;5.17;;;13.20;99.90;;;;;;5031034;28;20219;-53
2021/05/01 10:45:54;;;;;;;5.33;4.53;;;13.40;99.90;;;;;;5036382;28;20653;-56
2021/05/01 10:48:22;;;;;;;6.20;5.33;;;13.60;99.90;;;;;;5041201;28;20301;-54
2021/05/01 10:51:04;;;;;;;6.80;5.03;;;13.60;99.90;;;;;;5042847;28;20548;-56
2021/05/01 10:53:30;;;;;;;6.43;5.33;;;13.60;99.90;;;;;;5049910;28;20602;-57
2021/05/01 10:55:58;;;;;;;6.13;5.63;;;13.50;99.90;;;;;;5062444;28;20197;-57
2021/05/01 10:58:36;;;;;;;5.70;5.07;;;13.50;99.90;;;;;;5064563;28;20186;-56
2021/05/01 11:01:03;;;;;;;6.50;5.87;;;13.30;99.90;;;;;;5048990;28;20246;-57
2021/05/01 11:03:30;;;;;;;5.93;5.30;;;13.10;99.90;;;;;;5045920;28;20262;-53
2021/05/01 11:05:59;;;;;;;5.40;4.90;;;13.10;99.90;;;;;;5058463;28;20206;-56
2021/05/01 11:08:33;;;;;;;5.87;5.23;;;13.20;99.90;;;;;;5048982;28;20214;-54
2021/05/01 11:11:01;;;;;;;5.70;5.10;;;13.30;99.90;;;;;;5021892;28;20208;-56
2021/05/01 11:13:30;;;;;;;5.20;4.80;;;13.30;99.90;;;;;;5025459;28;20216;-55
2021/05/01 11:16:04;;;;;;;6.00;5.00;;;13.30;99.90;;;;;;5022920;28;20197;-56
2021/05/01 11:18:35;;;;;;;8.23;4.90;;;13.40;99.90;;;;;;5047101;28;20207;-49
2021/05/01 11:21:05;;;;;;;5.37;4.87;;;13.40;99.90;;;;;;5019622;28;20192;-55
2021/05/01 11:23:35;;;;;;;6.03;5.50;;;13.60;99.90;;;;;;5049321;28;20704;-54
2021/05/01 11:26:05;;;;;;;5.33;4.83;;;13.50;99.90;;;;;;5022275;28;20199;-56
2021/05/01 11:28:33;;;;;;;5.80;5.07;;;13.50;99.90;;;;;;5023469;28;20234;-55
2021/05/01 11:30:59;;;;;;;5.00;4.60;;;13.60;99.90;;;;;;5041247;28;20199;-53
2021/05/01 11:33:27;;;;;;;6.07;5.30;;;13.60;99.90;;;;;;5033195;28;20220;-55
2021/05/01 11:35:53;;;;;;;6.57;5.97;;;13.50;99.90;;;;;;5051225;28;20203;-57
2021/05/01 11:38:26;;;;;;;5.60;5.07;;;13.40;99.90;;;;;;5029472;28;20199;-55
2021/05/01 11:40:54;;;;;;;4.93;4.57;;;13.30;99.90;;;;;;5043435;28;20194;-57
2021/05/01 11:43:27;;;;;;;4.90;4.50;;;13.40;99.90;;;;;;5029065;28;20212;-53
2021/05/01 11:46:10;;;;;;;5.43;4.93;;;13.50;99.90;;;;;;5041683;28;20202;-56
2021/05/01 11:48:44;;;;;;;5.23;4.83;;;13.50;99.90;;;;;;5039121;28;20219;-55
2021/05/01 11:51:14;;;;;;;5.23;4.73;;;13.60;99.90;;;;;;5054910;28;20197;-55
2021/05/01 11:53:44;;;;;;;4.77;4.37;;;13.60;99.90;;;;;;5026486;28;20677;-53
2021/05/01 11:56:22;;;;;;;5.23;4.77;;;13.60;99.90;;;;;;5049466;28;20288;-53
2021/05/01 11:58:49;;;;;;;5.90;4.77;;;13.50;99.10;;;;;;5043633;28;20197;-57
2021/05/01 12:01:18;;;;;;;5.43;4.93;;;13.50;99.90;;;;;;5050643;28;20243;-50
2021/05/01 12:03:55;;;;;;;5.27;4.80;;;13.60;99.90;;;;;;5046739;28;20552;-58
2021/05/01 12:06:31;;;;;;;4.70;4.30;;;13.60;99.90;;;;;;5057708;28;20285;-55
2021/05/01 12:09:01;;;;;;;6.30;5.17;;;13.90;99.90;;;;;;5059151;28;20632;-58
2021/05/01 12:11:29;;;;;;;5.40;5.00;;;14.00;99.70;;;;;;5033404;28;20248;-54
2021/05/01 12:13:59;;;;;;;6.17;5.30;;;14.20;99.90;;;;;;5043010;28;20186;-59
2021/05/01 12:16:25;;;;;;;5.40;5.00;;;14.30;98.50;;;;;;5054191;28;20198;-57
2021/05/01 12:18:53;;;;;;;5.50;5.00;;;14.20;98.10;;;;;;5051977;28;20191;-59
2021/05/01 12:21:21;;;;;;;4.60;4.30;;;14.10;97.80;;;;;;5044619;28;20215;-54
2021/05/01 12:23:49;;;;;;;5.30;4.80;;;14.00;98.30;;;;;;5055674;28;20195;-57
2021/05/01 12:26:36;;;;;;;7.13;4.70;;;13.80;98.50;;;;;;5047429;28;20195;-57
2021/05/01 12:29:29;;;;;;;620.10;434.17;;;13.70;99.30;;;;;;5031430;28;20318;-56
2021/05/01 12:31:56;;;;;;;5.40;4.83;;;13.70;99.60;;;;;;5033357;28;20405;-55
2021/05/01 12:35:04;;;;;;;6.60;4.73;;;13.60;98.80;;;;;;5029540;28;20207;-53
2021/05/01 12:37:30;;;;;;;5.37;4.33;;;13.60;99.40;;;;;;5045666;28;20202;-54
2021/05/01 12:40:06;;;;;;;5.50;4.83;;;13.50;99.40;;;;;;5041022;28;20195;-55
2021/05/01 12:42:34;;;;;;;4.87;4.40;;;13.40;99.70;;;;;;5051990;28;20628;-58
2021/05/01 12:45:03;;;;;;;5.87;4.60;;;13.30;99.90;;;;;;5060167;28;20199;-58
2021/05/01 12:47:44;;;;;;;5.10;4.60;;;13.20;99.90;;;;;;5066483;28;20203;-54
2021/05/01 12:50:17;;;;;;;6.73;4.70;;;13.10;99.90;;;;;;5062658;28;20222;-55
2021/05/01 12:52:45;;;;;;;4.33;4.00;;;13.00;99.90;;;;;;5046088;28;20329;-59
2021/05/01 12:55:13;;;;;;;4.87;4.47;;;13.00;99.90;;;;;;5056820;28;20190;-51